Time;durP1;ratioP1;P1;durP2;ratioP2;P2;SDS_P1;SDS_P2;PMS_P1;PMS_P2;Temp;Humidity;BMP_temperature;BMP_pressure;BME280_temperature;BME280_humidity;BME280_pressure;Samples;Min_cycle;Max_cycle;Signal;HPM_P1;HPM_P2
2021/07/18 00:00:11;;;;;;;4.80;2.97;;;;;;;-140.79;100.00;63287.88;4988347;28;20025;-70
2021/07/18 00:02:37;;;;;;;5.20;2.83;;;;;;;-140.79;100.00;63287.88;4988237;28;20180;-70
2021/07/18 00:05:03;;;;;;;3.50;2.80;;;;;;;-140.79;100.00;63287.88;4987515;28;20049;-68
2021/07/18 00:07:29;;;;;;;4.70;2.55;;;;;;;-140.79;100.00;63287.88;4987582;28;20030;-70
2021/07/18 00:09:54;;;;;;;4.95;2.58;;;;;;;-140.79;100.00;63287.88;4988123;28;20032;-70
2021/07/18 00:12:20;;;;;;;5.18;3.00;;;;;;;-140.79;100.00;63287.88;4988427;28;20045;-70
2021/07/18 00:14:45;;;;;;;5.07;3.13;;;;;;;-140.79;100.00;63287.88;4987736;28;20046;-70
2021/07/18 00:17:11;;;;;;;4.85;3.00;;;;;;;-140.79;100.00;63287.88;4988128;28;20038;-70
2021/07/18 00:19:36;;;;;;;5.40;2.70;;;;;;;-140.79;100.00;63287.88;4970904;28;20061;-70
2021/07/18 00:22:02;;;;;;;3.20;2.35;;;;;;;-140.79;100.00;63287.88;4970794;28;20030;-70
2021/07/18 00:24:27;;;;;;;4.88;2.67;;;;;;;-140.79;100.00;63287.88;4988236;28;20122;-70
2021/07/18 00:26:53;;;;;;;5.80;2.72;;;;;;;-140.79;100.00;63287.88;4987544;28;20093;-70
2021/07/18 00:29:18;;;;;;;3.95;2.83;;;;;;;-140.79;100.00;63287.88;4988132;28;20053;-70
2021/07/18 00:31:44;;;;;;;4.53;2.80;;;;;;;-140.79;100.00;63287.88;4988149;28;20756;-70
2021/07/18 00:34:09;;;;;;;4.32;2.80;;;;;;;-140.79;100.00;63287.88;4987583;28;20022;-69
2021/07/18 00:36:36;;;;;;;4.82;2.63;;;;;;;-140.79;100.00;63287.88;4988089;28;20038;-69
2021/07/18 00:39:01;;;;;;;6.45;3.47;;;;;;;-140.79;100.00;63287.88;4987958;28;20751;-70
2021/07/18 00:41:27;;;;;;;4.22;3.05;;;;;;;-140.79;100.00;63287.88;4988082;28;20120;-70
2021/07/18 00:43:52;;;;;;;4.72;3.10;;;;;;;-140.79;100.00;63287.88;4987872;28;20034;-69
2021/07/18 00:46:18;;;;;;;5.57;3.20;;;;;;;-140.79;100.00;63287.88;4987876;28;20085;-70
2021/07/18 00:48:43;;;;;;;5.22;3.05;;;;;;;-140.79;100.00;63287.88;4988253;28;20026;-69
2021/07/18 00:51:08;;;;;;;5.68;3.20;;;;;;;-140.79;100.00;63287.88;4970249;28;20413;-69
2021/07/18 00:53:34;;;;;;;9.63;3.38;;;;;;;-140.79;100.00;63287.88;4987748;28;20394;-69
2021/07/18 00:55:59;;;;;;;5.10;3.13;;;;;;;-140.79;100.00;63287.88;4987652;28;20041;-70
2021/07/18 00:58:27;;;;;;;6.53;3.25;;;;;;;-140.79;100.00;63287.88;4987627;28;20041;-69
2021/07/18 01:00:53;;;;;;;5.03;3.30;;;;;;;-140.79;100.00;63287.88;4954714;28;20042;-69
2021/07/18 01:03:18;;;;;;;4.38;3.25;;;;;;;-140.79;100.00;63287.88;4967106;28;20117;-70
2021/07/18 01:05:43;;;;;;;6.25;3.67;;;;;;;-140.79;100.00;63287.88;4966122;28;20089;-69
2021/07/18 01:08:10;;;;;;;4.53;3.28;;;;;;;-140.79;100.00;63287.88;4966993;28;20089;-69
2021/07/18 01:10:35;;;;;;;5.72;3.72;;;;;;;-140.79;100.00;63287.88;4968274;28;20034;-69
2021/07/18 01:13:01;;;;;;;6.97;3.33;;;;;;;-140.79;100.00;63287.88;4967830;28;20038;-68
2021/07/18 01:15:26;;;;;;;5.60;3.40;;;;;;;-140.79;100.00;63287.88;4968286;28;20048;-69
2021/07/18 01:17:52;;;;;;;6.28;3.28;;;;;;;-140.79;100.00;63287.88;4968441;28;20490;-69
2021/07/18 01:20:17;;;;;;;8.82;3.00;;;;;;;-140.79;100.00;63287.88;4967310;28;20050;-69
2021/07/18 01:22:43;;;;;;;6.45;2.63;;;;;;;-140.79;100.00;63287.88;4950190;28;20026;-71
2021/07/18 01:25:10;;;;;;;4.85;3.47;;;;;;;-140.79;100.00;63287.88;4972733;28;20418;-68
2021/07/18 01:27:35;;;;;;;7.15;3.80;;;;;;;-140.79;100.00;63287.88;4949142;29;20038;-70
2021/07/18 01:30:02;;;;;;;4.90;3.08;;;;;;;-140.79;100.00;63287.88;4963671;28;20035;-68
2021/07/18 01:32:27;;;;;;;6.45;3.40;;;;;;;-140.79;100.00;63287.88;4949047;28;20039;-70
2021/07/18 01:34:53;;;;;;;5.70;3.20;;;;;;;-140.79;100.00;63287.88;4948874;29;20576;-71
2021/07/18 01:37:19;;;;;;;3.95;2.95;;;;;;;-140.79;100.00;63287.88;4949434;28;20038;-70
2021/07/18 01:39:44;;;;;;;3.95;2.70;;;;;;;-140.79;100.00;63287.88;4952103;28;20070;-70
2021/07/18 01:42:10;;;;;;;7.45;3.20;;;;;;;-140.79;100.00;63287.88;4952253;28;20050;-70
2021/07/18 01:44:35;;;;;;;6.00;3.00;;;;;;;-140.79;100.00;63287.88;4952204;29;20027;-70
2021/07/18 01:47:01;;;;;;;7.00;3.63;;;;;;;-140.79;100.00;63287.88;4952178;28;20425;-69
2021/07/18 01:49:26;;;;;;;4.72;2.97;;;;;;;-140.79;100.00;63287.88;4952745;28;20520;-68
2021/07/18 01:51:52;;;;;;;5.07;3.17;;;;;;;-140.79;100.00;63287.88;4971367;28;20050;-69
2021/07/18 01:54:17;;;;;;;5.00;3.35;;;;;;;-140.79;100.00;63287.88;4970825;28;20571;-69
2021/07/18 01:56:43;;;;;;;4.93;2.90;;;;;;;-140.79;100.00;63287.88;4971009;28;20568;-69
2021/07/18 01:59:08;;;;;;;5.10;3.10;;;;;;;-140.79;100.00;63287.88;4970525;28;20114;-69
2021/07/18 02:01:34;;;;;;;7.88;2.97;;;;;;;-140.79;100.00;63287.88;4970869;28;20062;-69
2021/07/18 02:04:01;;;;;;;4.38;3.13;;;;;;;-140.79;100.00;63287.88;4969094;28;20058;-69
2021/07/18 02:06:29;;;;;;;6.25;3.10;;;;;;;-140.79;100.00;63287.88;4968920;28;20542;-68
2021/07/18 02:08:55;;;;;;;6.00;2.75;;;;;;;-140.79;100.00;63287.88;4968752;28;20486;-69
2021/07/18 02:11:21;;;;;;;6.57;3.45;;;;;;;-140.79;100.00;63287.88;4970874;28;20037;-69
2021/07/18 02:13:48;;;;;;;4.65;2.95;;;;;;;-140.79;100.00;63287.88;4970434;28;20032;-69
2021/07/18 02:16:13;;;;;;;4.30;3.15;;;;;;;-140.79;100.00;63287.88;4968045;28;20062;-69
2021/07/18 02:18:39;;;;;;;6.72;3.00;;;;;;;-140.79;100.00;63287.88;4969482;28;20043;-68
2021/07/18 02:21:05;;;;;;;5.25;3.67;;;;;;;-140.79;100.00;63287.88;4969625;28;20037;-69
2021/07/18 02:23:30;;;;;;;8.07;3.50;;;;;;;-140.79;100.00;63287.88;4969848;28;20419;-69
2021/07/18 02:25:55;;;;;;;6.70;3.72;;;;;;;-140.79;100.00;63287.88;4970547;28;20034;-69
2021/07/18 02:28:21;;;;;;;6.28;3.20;;;;;;;-140.79;100.00;63287.88;4970519;28;20041;-69
2021/07/18 02:30:47;;;;;;;4.60;2.90;;;;;;;-140.79;100.00;63287.88;4970523;28;20050;-68
2021/07/18 02:33:12;;;;;;;6.20;3.38;;;;;;;-140.79;100.00;63287.88;4970725;28;20799;-71
2021/07/18 02:35:38;;;;;;;5.40;3.30;;;;;;;-140.79;100.00;63287.88;4965096;28;20031;-69
2021/07/18 02:38:03;;;;;;;7.85;3.00;;;;;;;-140.79;100.00;63287.88;4950775;28;20031;-69
2021/07/18 02:40:29;;;;;;;8.07;2.78;;;;;;;-140.79;100.00;63287.88;4968359;28;20077;-69
2021/07/18 02:42:54;;;;;;;6.28;3.30;;;;;;;-140.79;100.00;63287.88;4969497;28;20023;-69
2021/07/18 02:45:21;;;;;;;5.95;3.10;;;;;;;-140.79;100.00;63287.88;4969919;28;20035;-69
2021/07/18 02:47:47;;;;;;;4.45;2.92;;;;;;;-140.79;100.00;63287.88;4969991;28;20569;-69
2021/07/18 02:50:15;;;;;;;4.80;2.95;;;;;;;-140.79;100.00;63287.88;4984436;28;20047;-68
2021/07/18 02:52:41;;;;;;;7.07;3.97;;;;;;;-140.79;100.00;63287.88;4969356;28;20027;-69
2021/07/18 02:55:07;;;;;;;6.30;3.38;;;;;;;-140.79;100.00;63287.88;4968285;28;20115;-69
2021/07/18 02:57:33;;;;;;;5.88;3.15;;;;;;;-140.79;100.00;63287.88;4969711;28;20052;-69
2021/07/18 02:59:58;;;;;;;6.57;3.30;;;;;;;-140.79;100.00;63287.88;4969737;28;20046;-68
2021/07/18 03:02:24;;;;;;;4.97;3.55;;;;;;;-140.79;100.00;63287.88;4970028;28;20327;-69
2021/07/18 03:04:49;;;;;;;6.22;3.17;;;;;;;-140.79;100.00;63287.88;4988668;28;20030;-69
2021/07/18 03:07:15;;;;;;;5.47;3.20;;;;;;;-140.79;100.00;63287.88;4985681;28;20053;-69
2021/07/18 03:09:41;;;;;;;4.43;3.10;;;;;;;-140.79;100.00;63287.88;4988711;28;20027;-69
2021/07/18 03:12:06;;;;;;;7.18;3.00;;;;;;;-140.79;100.00;63287.88;4988977;28;20030;-69
2021/07/18 03:14:32;;;;;;;5.57;3.33;;;;;;;-140.79;100.00;63287.88;4980250;28;20069;-68
2021/07/18 03:16:57;;;;;;;5.95;3.30;;;;;;;-140.79;100.00;63287.88;4989046;28;20058;-68
2021/07/18 03:19:23;;;;;;;6.97;3.33;;;;;;;-140.79;100.00;63287.88;4989166;28;20022;-69
2021/07/18 03:21:49;;;;;;;6.63;3.15;;;;;;;-140.79;100.00;63287.88;4988669;28;20037;-68
2021/07/18 03:24:14;;;;;;;7.50;3.50;;;;;;;-140.79;100.00;63287.88;4971539;28;20431;-69
2021/07/18 03:26:40;;;;;;;5.93;3.35;;;;;;;-140.79;100.00;63287.88;4988897;28;20022;-70
2021/07/18 03:29:05;;;;;;;6.88;3.80;;;;;;;-140.79;100.00;63287.88;4988732;28;20416;-68
2021/07/18 03:31:31;;;;;;;7.20;3.40;;;;;;;-140.79;100.00;63287.88;4988962;28;20037;-68
2021/07/18 03:33:56;;;;;;;7.60;3.90;;;;;;;-140.79;100.00;63287.88;4971092;28;20027;-67
2021/07/18 03:36:22;;;;;;;6.88;3.50;;;;;;;-140.79;100.00;63287.88;4989177;28;20435;-68
2021/07/18 03:38:47;;;;;;;8.85;3.97;;;;;;;-140.79;100.00;63287.88;4988828;28;20034;-69
2021/07/18 03:41:13;;;;;;;5.25;3.40;;;;;;;-140.79;100.00;63287.88;4988979;28;20037;-69
2021/07/18 03:43:38;;;;;;;7.30;3.53;;;;;;;-140.79;100.00;63287.88;4979894;28;20126;-69
2021/07/18 03:46:04;;;;;;;7.15;3.53;;;;;;;-140.79;100.00;63287.88;4969221;28;20049;-69
2021/07/18 03:48:31;;;;;;;5.75;3.30;;;;;;;-140.79;100.00;63287.88;4969113;28;20114;-69
2021/07/18 03:50:57;;;;;;;6.88;3.42;;;;;;;-140.79;100.00;63287.88;4969269;28;20062;-69
2021/07/18 03:53:22;;;;;;;5.75;3.20;;;;;;;-140.79;100.00;63287.88;4969070;28;20069;-69
2021/07/18 03:55:48;;;;;;;6.10;3.20;;;;;;;-140.79;100.00;63287.88;4951631;28;20034;-69
2021/07/18 03:58:13;;;;;;;9.07;4.10;;;;;;;-140.79;100.00;63287.88;4969215;28;20027;-69
2021/07/18 04:00:39;;;;;;;6.70;3.10;;;;;;;-140.79;100.00;63287.88;4968285;28;20035;-69
2021/07/18 04:03:04;;;;;;;5.63;3.00;;;;;;;-140.79;100.00;63287.88;4981543;28;20057;-77
2021/07/18 04:05:32;;;;;;;5.38;3.15;;;;;;;-140.79;100.00;63287.88;4988350;28;20057;-80
2021/07/18 04:07:57;;;;;;;4.35;2.92;;;;;;;-140.79;100.00;63287.88;4988040;28;20350;-78
2021/07/18 04:10:23;;;;;;;5.82;3.15;;;;;;;-140.79;100.00;63287.88;4982837;28;20030;-84
2021/07/18 04:12:48;;;;;;;5.20;2.80;;;;;;;-140.79;100.00;63287.88;4956983;28;20080;-83
2021/07/18 04:15:14;;;;;;;8.35;3.25;;;;;;;-140.79;100.00;63287.88;4960922;28;20475;-84
2021/07/18 04:17:39;;;;;;;6.95;3.15;;;;;;;-140.79;100.00;63287.88;4987144;28;20029;-82
2021/07/18 04:20:05;;;;;;;5.65;3.15;;;;;;;-140.79;100.00;63287.88;4967349;28;20030;-80
2021/07/18 04:22:31;;;;;;;7.85;3.40;;;;;;;-140.79;100.00;63287.88;4989827;28;20026;-84
2021/07/18 04:24:56;;;;;;;7.32;3.40;;;;;;;-140.79;100.00;63287.88;4989608;28;20485;-83
2021/07/18 04:27:22;;;;;;;7.15;3.33;;;;;;;-140.79;100.00;63287.88;4970906;28;20045;-84
2021/07/18 04:29:47;;;;;;;9.88;3.38;;;;;;;-140.79;100.00;63287.88;4966340;28;20097;-80
2021/07/18 04:32:12;;;;;;;9.73;3.40;;;;;;;-140.79;100.00;63287.88;4985823;28;20033;-78
2021/07/18 04:34:42;;;;;;;6.15;3.40;;;;;;;-140.79;100.00;63287.88;4987969;28;20870;-78
2021/07/18 04:37:08;;;;;;;7.55;3.47;;;;;;;-140.79;100.00;63287.88;4985772;28;20607;-76
2021/07/18 04:39:33;;;;;;;5.65;3.38;;;;;;;-140.79;100.00;63287.88;4990623;28;20034;-81
2021/07/18 04:42:00;;;;;;;5.10;3.15;;;;;;;-140.79;100.00;63287.88;4987307;28;20485;-78
2021/07/18 04:44:25;;;;;;;4.65;3.00;;;;;;;-140.79;100.00;63287.88;4988970;28;20044;-78
2021/07/18 04:46:54;;;;;;;5.30;3.40;;;;;;;-140.79;100.00;63287.88;4985451;28;20014;-76
2021/07/18 04:49:21;;;;;;;5.47;3.20;;;;;;;-140.79;100.00;63287.88;4989839;28;20033;-86
2021/07/18 04:51:46;;;;;;;7.30;3.40;;;;;;;-140.79;100.00;63287.88;4989691;28;20026;-89
2021/07/18 04:54:11;;;;;;;6.00;3.10;;;;;;;-140.79;100.00;63287.88;4972823;28;20022;-79
2021/07/18 04:56:37;;;;;;;4.45;3.20;;;;;;;-140.79;100.00;63287.88;4967271;28;20030;-76
2021/07/18 04:59:02;;;;;;;6.80;3.35;;;;;;;-140.79;100.00;63287.88;4988520;28;20022;-76
2021/07/18 05:01:28;;;;;;;8.55;3.22;;;;;;;-140.79;100.00;63287.88;4984884;28;20030;-75
2021/07/18 05:03:53;;;;;;;4.97;3.17;;;;;;;-140.79;100.00;63287.88;4988348;28;20125;-80
2021/07/18 05:06:19;;;;;;;5.55;3.50;;;;;;;-140.79;100.00;63287.88;4985160;28;20035;-83
2021/07/18 05:08:44;;;;;;;6.53;3.45;;;;;;;-140.79;100.00;63287.88;4986183;28;20030;-84
2021/07/18 05:11:10;;;;;;;7.90;3.63;;;;;;;-140.79;100.00;63287.88;4971149;28;20122;-80
2021/07/18 05:13:36;;;;;;;6.68;3.70;;;;;;;-140.79;100.00;63287.88;4989958;28;20010;-78
2021/07/18 05:16:01;;;;;;;6.10;3.58;;;;;;;-140.79;100.00;63287.88;4990501;28;20051;-77
2021/07/18 05:18:26;;;;;;;7.60;3.53;;;;;;;-140.79;100.00;63287.88;4993336;28;20030;-77
2021/07/18 05:20:52;;;;;;;8.48;4.00;;;;;;;-140.79;100.00;63287.88;4992595;28;20034;-77
2021/07/18 05:23:17;;;;;;;8.63;3.97;;;;;;;-140.79;100.00;63287.88;4989040;28;20076;-77
2021/07/18 05:25:43;;;;;;;6.25;3.40;;;;;;;-140.79;100.00;63287.88;4987985;28;20042;-76
2021/07/18 05:28:08;;;;;;;7.00;3.97;;;;;;;-140.79;100.00;63287.88;4973756;28;20026;-76
2021/07/18 05:30:34;;;;;;;8.25;3.80;;;;;;;-140.79;100.00;63287.88;4986011;28;20029;-80
2021/07/18 05:32:59;;;;;;;7.82;3.53;;;;;;;-140.79;100.00;63287.88;4992848;28;20495;-77
2021/07/18 05:35:25;;;;;;;6.68;3.65;;;;;;;-140.79;100.00;63287.88;4991319;28;20037;-78
2021/07/18 05:37:50;;;;;;;7.10;3.55;;;;;;;-140.79;100.00;63287.88;4991298;28;20026;-87
2021/07/18 05:40:16;;;;;;;8.52;3.70;;;;;;;-140.79;100.00;63287.88;4976956;28;20116;-85
2021/07/18 05:42:42;;;;;;;9.15;4.20;;;;;;;-140.79;100.00;63287.88;4994430;28;20030;-80
2021/07/18 05:45:08;;;;;;;5.45;3.50;;;;;;;-140.79;100.00;63287.88;4994222;28;20029;-82
2021/07/18 05:47:35;;;;;;;5.57;3.60;;;;;;;-140.79;100.00;63287.88;4976375;28;20457;-83
2021/07/18 05:50:01;;;;;;;7.97;3.25;;;;;;;-140.79;100.00;63287.88;4995012;28;20030;-76
2021/07/18 05:52:26;;;;;;;4.60;3.00;;;;;;;-140.79;100.00;63287.88;5009375;28;20030;-79
2021/07/18 05:54:52;;;;;;;7.63;3.53;;;;;;;-140.79;100.00;63287.88;4996632;28;20035;-72
2021/07/18 05:57:18;;;;;;;8.27;3.60;;;;;;;-140.79;100.00;63287.88;5009376;28;20039;-78
2021/07/18 05:59:44;;;;;;;6.43;4.13;;;;;;;-140.79;100.00;63287.88;5012441;28;20146;-77
2021/07/18 06:02:09;;;;;;;6.20;3.80;;;;;;;-140.79;100.00;63287.88;4987963;28;20030;-76
2021/07/18 06:04:34;;;;;;;6.38;3.70;;;;;;;-140.79;100.00;63287.88;4990132;28;20045;-76
2021/07/18 06:07:00;;;;;;;9.65;3.83;;;;;;;-140.79;100.00;63287.88;4985155;28;20048;-77
2021/07/18 06:09:25;;;;;;;6.43;3.63;;;;;;;-140.79;100.00;63287.88;4969581;28;20038;-77
2021/07/18 06:11:51;;;;;;;7.20;3.30;;;;;;;-140.79;100.00;63287.88;4980428;28;20751;-77
2021/07/18 06:14:16;;;;;;;5.32;3.95;;;;;;;-140.79;100.00;63287.88;4972001;28;20027;-76
2021/07/18 06:16:42;;;;;;;7.10;3.67;;;;;;;-140.79;100.00;63287.88;4952175;28;20034;-76
2021/07/18 06:19:07;;;;;;;9.05;3.70;;;;;;;-140.79;100.00;63287.88;4985285;28;20026;-76
2021/07/18 06:21:32;;;;;;;8.00;4.30;;;;;;;-140.79;100.00;63287.88;4985205;28;20030;-77
2021/07/18 06:23:58;;;;;;;5.90;3.83;;;;;;;-140.79;100.00;63287.88;4987984;28;20022;-77
2021/07/18 06:26:23;;;;;;;6.57;4.25;;;;;;;-140.79;100.00;63287.88;4963502;28;20421;-77
2021/07/18 06:28:49;;;;;;;9.55;4.63;;;;;;;-140.79;100.00;63287.88;4987895;28;20022;-77
2021/07/18 06:31:14;;;;;;;10.20;5.20;;;;;;;-140.79;100.00;63287.88;4988193;28;20120;-76
2021/07/18 06:33:40;;;;;;;9.50;4.43;;;;;;;-140.79;100.00;63287.88;4990759;28;20101;-79
2021/07/18 06:36:05;;;;;;;7.68;4.15;;;;;;;-140.79;100.00;63287.88;4971598;28;20041;-79
2021/07/18 06:38:31;;;;;;;5.90;4.10;;;;;;;-140.79;100.00;63287.88;4984095;28;20034;-76
2021/07/18 06:40:56;;;;;;;6.63;3.92;;;;;;;-140.79;100.00;63287.88;4989336;28;20037;-74
2021/07/18 06:43:22;;;;;;;9.00;4.75;;;;;;;-140.79;100.00;63287.88;4989716;28;20453;-73
2021/07/18 06:45:47;;;;;;;7.43;4.35;;;;;;;-140.79;100.00;63287.88;4986627;28;20039;-74
2021/07/18 06:48:13;;;;;;;8.02;4.72;;;;;;;-140.79;100.00;63287.88;4989480;28;20100;-73
2021/07/18 06:50:38;;;;;;;9.73;4.70;;;;;;;-140.79;100.00;63287.88;4987682;28;20117;-73
2021/07/18 06:53:04;;;;;;;8.05;5.03;;;;;;;-140.79;100.00;63287.88;4989524;28;20038;-73
2021/07/18 06:55:29;;;;;;;9.23;4.78;;;;;;;-140.79;100.00;63287.88;4970521;28;20034;-74
2021/07/18 06:57:54;;;;;;;9.93;4.28;;;;;;;-140.79;100.00;63287.88;4989968;28;20100;-73
2021/07/18 07:00:21;;;;;;;30.37;8.17;;;;;;;-140.79;100.00;63287.88;4987435;28;20821;-81
2021/07/18 07:02:46;;;;;;;9.40;4.78;;;;;;;-140.79;100.00;63287.88;4987716;28;20047;-85
2021/07/18 07:05:12;;;;;;;10.88;4.78;;;;;;;-140.79;100.00;63287.88;4955475;28;20033;-78
2021/07/18 07:07:38;;;;;;;9.82;4.72;;;;;;;-140.79;100.00;63287.88;4988077;28;20042;-80
2021/07/18 07:10:07;;;;;;;11.82;5.13;;;;;;;-140.79;100.00;63287.88;4988698;28;20049;-79
2021/07/18 07:12:32;;;;;;;7.57;4.88;;;;;;;-140.79;100.00;63287.88;4987690;28;20088;-77
2021/07/18 07:14:58;;;;;;;10.07;4.78;;;;;;;-140.79;100.00;63287.88;4988792;28;20018;-78
2021/07/18 07:17:23;;;;;;;7.93;4.53;;;;;;;-140.79;100.00;63287.88;4981583;28;20031;-78
2021/07/18 07:19:49;;;;;;;6.82;4.68;;;;;;;-140.79;100.00;63287.88;4989662;28;20030;-77
2021/07/18 07:22:14;;;;;;;9.20;4.93;;;;;;;-140.79;100.00;63287.88;4966528;28;20038;-78
2021/07/18 07:24:39;;;;;;;6.85;4.45;;;;;;;-140.79;100.00;63287.88;4987698;28;20080;-76
2021/07/18 07:27:05;;;;;;;8.98;4.07;;;;;;;-140.79;100.00;63287.88;4988322;28;20513;-77
2021/07/18 07:29:30;;;;;;;8.07;4.18;;;;;;;-140.79;100.00;63287.88;4990066;28;20421;-76
2021/07/18 07:31:56;;;;;;;7.90;4.15;;;;;;;-140.79;100.00;63287.88;4976625;28;20185;-77
2021/07/18 07:34:22;;;;;;;7.45;3.95;;;;;;;-140.79;100.00;63287.88;4967322;28;20105;-77
2021/07/18 07:36:47;;;;;;;10.73;4.18;;;;;;;-140.79;100.00;63287.88;4984186;28;20124;-76
2021/07/18 07:39:13;;;;;;;6.88;4.25;;;;;;;-140.79;100.00;63287.88;4984938;28;20096;-85
2021/07/18 07:41:38;;;;;;;8.75;4.20;;;;;;;-140.79;100.00;63287.88;4968559;28;20045;-76
2021/07/18 07:44:04;;;;;;;5.35;4.20;;;;;;;-140.79;100.00;63287.88;4988936;28;20029;-76
2021/07/18 07:46:29;;;;;;;8.57;4.22;;;;;;;-140.79;100.00;63287.88;4985153;28;20054;-75
2021/07/18 07:48:55;;;;;;;8.27;4.70;;;;;;;-140.79;100.00;63287.88;4987266;28;20081;-74
2021/07/18 07:51:20;;;;;;;9.65;4.35;;;;;;;-140.79;100.00;63287.88;4960667;28;20112;-74
2021/07/18 07:53:46;;;;;;;6.55;4.28;;;;;;;-140.79;100.00;63287.88;4984241;28;20019;-75
2021/07/18 07:56:11;;;;;;;7.65;3.70;;;;;;;-140.79;100.00;63287.88;4984495;28;20413;-74
2021/07/18 07:58:37;;;;;;;7.65;3.92;;;;;;;-140.79;100.00;63287.88;4989393;28;20018;-73
2021/07/18 08:01:03;;;;;;;6.00;4.15;;;;;;;-140.79;100.00;63287.88;4984409;28;20050;-74
2021/07/18 08:03:28;;;;;;;5.97;3.65;;;;;;;-140.79;100.00;63287.88;4984140;28;20046;-75
2021/07/18 08:05:54;;;;;;;7.03;3.97;;;;;;;-140.79;100.00;63287.88;4983024;28;20031;-75
2021/07/18 08:08:19;;;;;;;5.07;3.58;;;;;;;-140.79;100.00;63287.88;4988607;28;20026;-74
2021/07/18 08:10:45;;;;;;;6.43;4.20;;;;;;;-140.79;100.00;63287.88;4984731;28;20053;-73
2021/07/18 08:13:10;;;;;;;6.75;4.10;;;;;;;-140.79;100.00;63287.88;4987476;28;20042;-73
2021/07/18 08:15:36;;;;;;;6.97;3.55;;;;;;;-140.79;100.00;63287.88;4986633;28;20031;-74
2021/07/18 08:18:01;;;;;;;8.02;4.40;;;;;;;-140.79;100.00;63287.88;4982850;28;20030;-77
2021/07/18 08:20:27;;;;;;;6.60;4.03;;;;;;;-140.79;100.00;63287.88;4983956;28;20510;-76
2021/07/18 08:22:53;;;;;;;5.03;4.00;;;;;;;-140.79;100.00;63287.88;4984396;28;20026;-77
2021/07/18 08:25:19;;;;;;;5.88;4.57;;;;;;;-140.79;100.00;63287.88;4984800;28;20022;-75
2021/07/18 08:27:44;;;;;;;5.97;4.32;;;;;;;-140.79;100.00;63287.88;4983834;28;20034;-75
2021/07/18 08:30:10;;;;;;;8.13;4.40;;;;;;;-140.79;100.00;63287.88;4988693;28;20026;-84
2021/07/18 08:32:36;;;;;;;4.95;4.15;;;;;;;-140.79;100.00;63287.88;4984666;28;20409;-82
2021/07/18 08:35:02;;;;;;;4.32;3.40;;;;;;;-140.79;100.00;63287.88;4983935;28;20031;-81
2021/07/18 08:37:27;;;;;;;4.75;3.47;;;;;;;-140.79;100.00;63287.88;4983428;28;20022;-79
2021/07/18 08:39:53;;;;;;;5.35;3.30;;;;;;;-140.79;100.00;63287.88;4984018;28;20022;-80
2021/07/18 08:42:18;;;;;;;5.57;3.40;;;;;;;-140.79;100.00;63287.88;4987712;28;20452;-80
2021/07/18 08:44:44;;;;;;;5.30;3.15;;;;;;;-140.79;100.00;63287.88;4988753;28;20027;-78
2021/07/18 08:47:09;;;;;;;4.32;3.22;;;;;;;-140.79;100.00;63287.88;4968926;28;20789;-79
2021/07/18 08:49:36;;;;;;;5.05;3.30;;;;;;;-140.79;100.00;63287.88;4996466;28;20112;-85
2021/07/18 08:52:01;;;;;;;5.03;3.03;;;;;;;-140.79;100.00;63287.88;4999033;28;20038;-80
2021/07/18 08:54:27;;;;;;;9.65;5.05;;;;;;;-140.79;100.00;63287.88;4990175;28;20029;-83
2021/07/18 08:56:52;;;;;;;15.35;7.25;;;;;;;-140.79;100.00;63287.88;4968422;28;20132;-77
2021/07/18 08:59:18;;;;;;;15.07;6.55;;;;;;;-140.79;100.00;63287.88;4954227;28;20037;-79
2021/07/18 09:01:43;;;;;;;14.32;6.57;;;;;;;-140.79;100.00;63287.88;4988750;28;20042;-80
2021/07/18 09:04:09;;;;;;;12.63;9.90;;;;;;;-140.79;100.00;63287.88;4988588;28;20050;-80
2021/07/18 09:06:45;;;;;;;11.07;8.50;;;;;;;-140.79;100.00;63287.88;4985228;28;20038;-78
2021/07/18 09:09:15;;;;;;;11.75;7.65;;;;;;;-140.79;100.00;63287.88;4991994;28;20068;-80
2021/07/18 09:11:40;;;;;;;10.02;5.72;;;;;;;-140.79;100.00;63287.88;4986231;28;20050;-79
2021/07/18 09:14:07;;;;;;;9.25;6.10;;;;;;;-140.79;100.00;63287.88;4975451;28;20033;-81
2021/07/18 09:16:40;;;;;;;8.40;5.50;;;;;;;-140.79;100.00;63287.88;4990671;28;20046;-81
2021/07/18 09:19:29;;;;;;;7.07;5.20;;;;;;;-140.79;100.00;63287.88;4992018;28;20034;-77
2021/07/18 09:21:57;;;;;;;19.58;13.18;;;;;;;-140.79;100.00;63287.88;4987184;28;20034;-76
2021/07/18 09:24:24;;;;;;;12.80;8.95;;;;;;;-140.79;100.00;63287.88;4985493;28;20030;-76
2021/07/18 09:27:06;;;;;;;9.80;7.13;;;;;;;-140.79;100.00;63287.88;4983128;28;20074;-76
2021/07/18 09:29:31;;;;;;;10.38;6.32;;;;;;;-140.79;100.00;63287.88;4992189;28;20038;-76
2021/07/18 09:32:05;;;;;;;7.35;6.03;;;;;;;-140.79;100.00;63287.88;4971491;28;20461;-76
2021/07/18 09:34:42;;;;;;;7.72;4.85;;;;;;;-140.79;100.00;63287.88;4986347;28;20417;-76
2021/07/18 09:37:11;;;;;;;8.05;4.97;;;;;;;-140.79;100.00;63287.88;4985344;28;20042;-76
2021/07/18 09:39:37;;;;;;;8.43;4.65;;;;;;;-140.79;100.00;63287.88;4987232;28;20030;-78
2021/07/18 09:42:03;;;;;;;7.57;5.05;;;;;;;-140.79;100.00;63287.88;4990309;28;20034;-81
2021/07/18 09:44:39;;;;;;;6.30;5.00;;;;;;;-140.79;100.00;63287.88;4974246;28;20026;-81
2021/07/18 09:47:05;;;;;;;7.57;4.53;;;;;;;-140.79;100.00;63287.88;4987233;28;20113;-74
2021/07/18 09:49:34;;;;;;;5.88;4.18;;;;;;;-140.79;100.00;63287.88;4980606;28;20019;-79
2021/07/18 09:52:20;;;;;;;5.78;4.35;;;;;;;-140.79;100.00;63287.88;4961326;28;20034;-81
2021/07/18 09:54:46;;;;;;;5.78;3.83;;;;;;;-140.79;100.00;63287.88;4992111;28;20033;-77
2021/07/18 09:57:27;;;;;;;8.10;4.78;;;;;;;-140.79;100.00;63287.88;4988198;28;20565;-81
2021/07/18 09:59:53;;;;;;;7.30;3.67;;;;;;;-140.79;100.00;63287.88;4986474;28;20023;-75
2021/07/18 10:02:31;;;;;;;6.03;4.15;;;;;;;-140.79;100.00;63287.88;4988302;28;20039;-75
2021/07/18 10:04:56;;;;;;;5.65;3.85;;;;;;;-140.79;100.00;63287.88;4994947;28;20046;-80
2021/07/18 10:07:22;;;;;;;4.30;3.30;;;;;;;-140.79;100.00;63287.88;4976577;28;20033;-83
2021/07/18 10:09:49;;;;;;;7.22;3.70;;;;;;;-140.79;100.00;63287.88;4975017;28;20026;-83
2021/07/18 10:12:15;;;;;;;4.53;3.45;;;;;;;-140.79;100.00;63287.88;4980330;28;20026;-80
2021/07/18 10:14:41;;;;;;;4.78;3.40;;;;;;;-140.79;100.00;63287.88;4972057;28;20111;-75
2021/07/18 10:17:07;;;;;;;4.43;3.13;;;;;;;-140.79;100.00;63287.88;4970586;28;20084;-77
2021/07/18 10:19:32;;;;;;;5.45;3.88;;;;;;;-140.79;100.00;63287.88;4986359;28;20923;-74
2021/07/18 10:21:58;;;;;;;4.82;3.17;;;;;;;-140.79;100.00;63287.88;4971832;28;20018;-81
2021/07/18 10:24:23;;;;;;;5.72;3.45;;;;;;;-140.79;100.00;63287.88;4960110;28;20113;-76
2021/07/18 10:26:49;;;;;;;4.97;3.78;;;;;;;-140.79;100.00;63287.88;4970240;28;20045;-82
2021/07/18 10:29:14;;;;;;;5.53;3.40;;;;;;;-140.79;100.00;63287.88;5001052;28;20030;-88
2021/07/18 10:31:52;;;;;;;6.28;3.60;;;;;;;-140.79;100.00;63287.88;4980679;28;20472;-78
2021/07/18 10:34:18;;;;;;;4.55;3.22;;;;;;;-140.79;100.00;63287.88;4971645;28;20488;-79
2021/07/18 10:36:43;;;;;;;3.78;3.08;;;;;;;-140.79;100.00;63287.88;4953933;28;20030;-80
2021/07/18 10:39:38;;;;;;;4.38;3.05;;;;;;;-140.79;100.00;63287.88;4956069;28;20037;-80
2021/07/18 10:42:27;;;;;;;4.30;3.05;;;;;;;-140.79;100.00;63287.88;4975946;28;20485;-78
2021/07/18 10:44:53;;;;;;;3.95;3.20;;;;;;;-140.79;100.00;63287.88;4987180;28;20049;-78
2021/07/18 10:47:19;;;;;;;4.00;3.40;;;;;;;-140.79;100.00;63287.88;4974113;28;20034;-78
2021/07/18 10:49:52;;;;;;;4.70;3.38;;;;;;;-140.79;100.00;63287.88;4993936;28;20030;-78
2021/07/18 10:52:18;;;;;;;4.90;3.13;;;;;;;-140.79;100.00;63287.88;5006733;28;20483;-78
2021/07/18 10:54:44;;;;;;;4.63;3.30;;;;;;;-140.79;100.00;63287.88;4979392;28;20026;-80
2021/07/18 10:57:23;;;;;;;3.80;2.83;;;;;;;-140.79;100.00;63287.88;4993630;28;20035;-80
2021/07/18 10:59:48;;;;;;;3.95;3.25;;;;;;;-140.79;100.00;63287.88;4976085;28;20792;-82
2021/07/18 11:02:16;;;;;;;4.85;3.35;;;;;;;-140.79;100.00;63287.88;4991824;28;20041;-81
2021/07/18 11:04:42;;;;;;;4.13;2.97;;;;;;;-140.79;100.00;63287.88;4974275;28;20449;-79